Latest Weather Observations for Douglas River

IDD60801

Issued at 3:31 pm CST Wednesday 28 January 2015 (issued every 30 minutes, with the page automatically refreshed every 10 minutes)

About weather observations | Map of weather stations | Latest weather observations for NT | Other Formats
Station Details ID: 014901 Name: DOUGLAS RIVER Lat: -13.83 Lon: 131.19 Height: 42.8 m
Data from the previous 72 hours. | See also: Recent months at Douglas River
Date/Time
CST
Temp
°C
App
Temp
°C
Dew
Point
Rel
Hum
%
Delta-T
°C
Wind Press
QNH
hPa
Press
MSL
hPa
Rain
since 9 am
mm
Dir
 
Spd
km/h
Gust
km/h
Spd
kts
Gust
kts
28/03:30pm 32.9 37.1 24.1 60 6.2 WSW 9 15 5 8 1002.7 1002.3 0.0
28/03:00pm 31.4 35.8 23.8 64 5.3 W 7 13 4 7 1003.2 1002.8 0.0
28/02:30pm 31.8 36.0 23.4 61 5.8 SW 7 11 4 6 1003.8 1003.4 0.0
28/02:00pm 31.6 35.4 23.4 61 5.7 WSW 9 13 5 7 1004.2 1003.8 0.0
28/01:30pm 31.3 35.6 23.7 64 5.3 WNW 7 9 4 5 1004.6 1004.3 0.0
28/01:00pm 31.1 35.4 23.3 63 5.4 WNW 6 9 3 5 1005.0 1004.7 0.0
28/12:30pm 31.1 35.2 22.3 59 6.0 SW 4 7 2 4 1005.4 1005.1 0.0
28/12:00pm 31.0 34.4 22.0 58 6.1 WSW 7 11 4 6 1005.5 1005.2 0.0
28/11:30am 30.7 34.3 22.3 61 5.7 SSW 7 13 4 7 1005.6 1005.3 0.0
28/11:00am 29.7 33.5 22.8 66 4.7 SE 7 9 4 5 1005.9 1005.6 0.0
28/10:30am 28.1 32.3 23.1 74 3.4 E 6 7 3 4 1006.1 1005.8 0.0
28/10:00am 27.3 31.5 23.2 78 2.8 E 6 11 3 6 1006.4 1006.1 0.0
28/09:30am 26.6 31.5 23.7 84 2.0 NNE 4 9 2 5 1006.4 1006.1 0.0
28/09:00am 25.1 29.8 23.3 90 1.2 ESE 4 7 2 4 1006.2 1005.9 0.2
28/08:30am 24.4 29.9 23.4 94 0.7 CALM 0 0 0 0 1006.2 1005.9 0.2
28/08:00am 23.8 27.8 23.1 96 0.5 ESE 7 9 4 5 1005.8 1005.5 0.2
28/07:30am 23.5 27.5 23.1 98 0.3 ESE 7 9 4 5 1005.5 1005.2 0.2
28/07:00am 23.2 28.0 22.9 98 0.2 E 2 7 1 4 1005.1 1004.8 0.2
28/06:30am 23.0 28.1 22.7 98 0.2 CALM 0 0 0 0 1005.1 1004.8 0.2
28/06:00am 23.1 28.2 22.7 98 0.3 CALM 0 0 0 0 1005.0 1004.7 0.2
28/05:30am 23.2 28.4 22.8 98 0.3 CALM 0 0 0 0 1004.8 1004.5 0.2
28/05:00am 23.3 28.5 22.9 98 0.3 CALM 0 0 0 0 1004.9 1004.6 0.2
28/04:30am 23.3 28.5 22.9 98 0.3 CALM 0 0 0 0 1004.7 1004.4 0.2
28/04:00am 23.4 28.6 22.8 96 0.4 CALM 0 0 0 0 1004.8 1004.5 0.2
28/03:30am 23.4 27.5 23.0 98 0.3 SSE 6 7 3 4 1005.0 1004.7 0.2
28/03:00am 23.6 28.9 23.0 96 0.4 CALM 0 0 0 0 1005.2 1004.9 0.2
28/02:30am 23.7 28.2 23.0 96 0.5 ESE 4 6 2 3 1005.5 1005.2 0.2
28/02:00am 23.8 29.1 23.1 96 0.5 CALM 0 0 0 0 1006.0 1005.7 0.2
28/01:30am 23.8 28.8 23.2 96 0.4 ESE 2 7 1 4 1006.3 1006.0 0.2
28/01:00am 23.9 29.1 22.9 94 0.7 CALM 0 0 0 0 1006.7 1006.4 0.2
28/12:30am 24.0 28.9 23.0 94 0.7 W 2 7 1 4 1007.1 1006.8 0.2
28/12:00am 24.0 29.3 23.1 95 0.6 CALM 0 0 0 0 1007.2 1006.9 0.2
 
Date/Time
CST
Temp
°C
App
Temp
°C
Dew
Point
Rel
Hum
%
Delta-T
°C
Wind Press
QNH
hPa
Press
MSL
hPa
Rain
since 9 am
mm
Dir
 
Spd
km/h
Gust
km/h
Spd
kts
Gust
kts
27/11:30pm 24.1 29.3 22.8 92 0.9 CALM 0 0 0 0 1007.6 1007.3 0.2
27/11:00pm 24.0 29.0 22.5 91 1.0 CALM 0 0 0 0 1007.7 1007.4 0.2
27/10:30pm 24.0 29.1 22.7 92 0.9 CALM 0 0 0 0 1007.4 1007.1 0.2
27/10:00pm 24.1 28.8 22.0 88 1.4 CALM 0 0 0 0 1007.6 1007.3 0.2
27/09:30pm 24.3 28.7 22.1 87 1.5 ENE 2 7 1 4 1008.0 1007.7 0.2
27/09:00pm 24.4 26.5 21.7 85 1.8 E 13 19 7 10 1008.2 1007.9 0.2
27/08:30pm 25.6 29.7 23.9 90 1.2 E 9 15 5 8 1007.9 1007.6 0.2
27/08:00pm 25.7 29.8 24.0 90 1.2 SE 9 13 5 7 1007.2 1006.9 0.2
27/07:30pm 26.2 29.4 23.7 86 1.7 S 13 19 7 10 1007.0 1006.7 0.2
27/07:00pm 26.4 30.7 24.2 88 1.5 SW 9 15 5 8 1005.8 1005.5 0.2
27/06:30pm 26.8 30.7 24.8 89 1.4 SW 13 17 7 9 1005.1 1004.8 0.2
27/06:00pm 27.2 31.1 24.9 87 1.6 W 13 20 7 11 1003.8 1003.4 0.2
27/05:30pm 27.5 30.0 24.8 85 1.9 W 20 28 11 15 1003.7 1003.3 0.2
27/05:00pm 29.5 33.2 24.5 74 3.5 W 13 32 7 17 1003.7 1003.3 0.2
27/04:30pm 30.1 34.7 24.8 73 3.7 NW 9 15 5 8 1003.1 1002.7 0.2
27/04:00pm 31.0 35.7 25.5 72 3.9 NW 11 20 6 11 1003.0 1002.6 0.2
27/03:30pm 30.1 34.9 25.7 77 3.1 NW 11 20 6 11 1003.6 1003.2 0.2
27/03:00pm 32.2 37.5 26.4 71 4.2 NW 11 19 6 10 1003.9 1003.5 0.2
27/02:30pm 31.8 36.1 24.9 67 4.9 WNW 11 19 6 10 1004.2 1003.8 0.2
27/02:00pm 31.7 36.4 25.5 69 4.4 NW 11 19 6 10 1005.2 1004.9 0.2
27/01:30pm 31.4 34.9 22.8 60 5.9 NW 9 17 5 9 1005.5 1005.2 0.2
27/01:00pm 31.2 35.5 23.6 64 5.3 W 7 13 4 7 1005.7 1005.4 0.2
27/12:30pm 30.5 34.7 23.1 64 5.1 SW 6 13 3 7 1006.2 1005.9 0.0
27/12:00pm 29.4 34.2 24.2 73 3.6 NW 6 11 3 6 1007.1 1006.8 0.0
27/11:30am 27.3 32.0 24.3 84 2.1 WSW 7 11 4 6 1007.4 1007.1 0.0
27/11:00am 25.4 30.3 23.6 90 1.2 WSW 4 9 2 5 1007.9 1007.6 0.0
27/10:30am 24.6 29.7 23.3 92 0.9 W 2 6 1 3 1008.1 1007.8 0.0
27/10:00am 24.2 28.4 23.2 94 0.7 WNW 6 7 3 4 1008.6 1008.3 0.0
27/09:30am 24.1 28.3 23.1 94 0.7 NW 6 7 3 4 1008.7 1008.4 0.0
27/09:00am 23.7 27.7 22.8 95 0.6 NNW 6 9 3 5 1008.8 1008.5 4.8
27/08:30am 23.3 27.2 22.6 96 0.5 WNW 6 9 3 5 1008.6 1008.3 4.8
27/08:00am 23.1 27.7 22.4 96 0.5 N 2 9 1 5 1008.4 1008.1 4.8
27/07:30am 23.4 25.0 22.2 93 0.8 E 17 24 9 13 1008.1 1007.8 4.8
27/07:00am 23.7 25.3 22.8 95 0.6 ESE 19 30 10 16 1008.2 1007.9 4.8
27/06:30am 25.2 30.4 24.8 98 0.3 SSW 6 9 3 5 1007.8 1007.5 1.8
27/06:00am 25.0 29.6 24.7 98 0.2 ESE 9 11 5 6 1007.6 1007.3 0.0
27/05:30am 24.9 31.0 24.5 98 0.3 CALM 0 0 0 0 1006.8 1006.5 0.0
27/05:00am 24.9 31.0 24.5 98 0.3 CALM 0 0 0 0 1006.3 1006.0 0.0
27/04:30am 24.8 30.9 24.4 98 0.3 CALM 0 0 0 0 1006.0 1005.7 0.0
27/04:00am 24.8 30.9 24.4 98 0.3 CALM 0 0 0 0 1006.0 1005.7 0.0
27/03:30am 24.8 30.9 24.4 98 0.3 CALM 0 0 0 0 1005.8 1005.5 0.0
27/03:00am 25.0 31.1 24.4 96 0.4 CALM 0 0 0 0 1006.1 1005.8 0.0
27/02:30am 25.1 31.2 24.4 96 0.5 CALM 0 0 0 0 1006.2 1005.9 0.0
27/02:00am 25.3 31.4 24.4 95 0.6 CALM 0 0 0 0 1006.2 1005.9 0.0
27/01:30am 25.5 31.6 24.5 94 0.7 CALM 0 0 0 0 1006.6 1006.3 0.0
27/01:00am 25.5 31.6 24.5 94 0.7 CALM 0 0 0 0 1007.4 1007.1 0.0
27/12:30am 25.5 31.6 24.5 94 0.7 CALM 0 0 0 0 1008.0 1007.7 0.0
27/12:00am 25.6 31.7 24.4 93 0.8 CALM 0 6 0 3 1008.2 1007.9 0.0
 
Date/Time
CST
Temp
°C
App
Temp
°C
Dew
Point
Rel
Hum
%
Delta-T
°C
Wind Press
QNH
hPa
Press
MSL
hPa
Rain
since 9 am
mm
Dir
 
Spd
km/h
Gust
km/h
Spd
kts
Gust
kts
26/11:30pm 25.9 30.9 24.5 92 1.0 WNW 6 9 3 5 1008.3 1008.0 0.0
26/11:00pm 26.1 30.9 24.5 91 1.1 WNW 7 11 4 6 1008.2 1007.9 0.0
26/10:30pm 26.1 31.2 25.0 94 0.8 WNW 7 9 4 5 1008.1 1007.8 0.0
26/10:00pm 26.2 31.6 25.1 94 0.8 WNW 6 9 3 5 1008.0 1007.7 0.0
26/09:30pm 26.4 31.6 24.8 91 1.1 W 6 11 3 6 1007.3 1007.0 0.0
26/09:00pm 26.5 30.6 24.6 89 1.3 WNW 11 19 6 10 1006.6 1006.3 0.0
26/08:30pm 27.1 31.7 24.7 87 1.7 WNW 9 15 5 8 1006.3 1006.0 0.0
26/08:00pm 27.4 33.0 25.4 89 1.4 WNW 6 9 3 5 1006.2 1005.9 0.0
26/07:30pm 27.9 34.0 25.6 87 1.6 NW 4 7 2 4 1006.1 1005.8 0.0
26/07:00pm 28.7 34.1 25.4 82 2.3 WNW 7 13 4 7 1005.9 1005.6 0.0
26/06:30pm 29.5 34.6 25.6 79 2.8 WNW 9 17 5 9 1005.6 1005.3 0.0
26/06:00pm 30.9 36.2 25.9 74 3.6 WNW 9 13 5 7 1005.5 1005.2 0.0
26/05:30pm 30.0 35.9 25.9 78 2.9 NW 6 11 3 6 1005.5 1005.2 0.0
26/05:00pm 30.2 36.0 25.8 77 3.1 NW 6 7 3 4 1005.2 1004.9 0.0
26/04:30pm 30.0 36.8 25.6 77 3.1 CALM 0 6 0 3 1005.1 1004.8 0.0
26/04:00pm 29.6 35.6 26.1 81 2.5 NW 6 9 3 5 1005.2 1004.9 0.0
26/03:30pm 28.8 32.5 25.7 83 2.2 WNW 17 26 9 14 1005.7 1005.4 0.0
26/03:00pm 29.8 34.5 25.0 75 3.4 WNW 9 13 5 7 1005.5 1005.2 0.0
26/02:30pm 29.6 35.8 25.8 80 2.7 NW 4 7 2 4 1005.2 1004.9 0.0
26/02:29pm 29.6 35.6 25.5 78 2.9 NNW 4 7 2 4 1005.2 - 0.0
26/02:00pm 30.0 36.0 24.9 74 3.6 SSE 2 7 1 4 1006.8 1006.5 0.0
26/01:30pm 30.5 33.9 23.3 65 5.0 SSE 11 15 6 8 1007.3 1007.0 0.0
26/01:00pm 30.8 34.5 23.3 64 5.2 S 9 15 5 8 1008.3 1008.0 0.0
26/12:30pm 30.8 34.2 23.4 64 5.1 SE 11 20 6 11 1008.5 1008.2 0.0
26/12:00pm 30.0 34.6 24.7 73 3.7 SE 9 13 5 7 1009.0 1008.7 0.0
26/11:30am 29.4 34.0 24.8 76 3.2 SE 9 15 5 8 1009.1 1008.8 0.0
26/11:00am 28.3 32.5 24.1 78 2.9 SE 9 15 5 8 1009.8 1009.5 0.0
26/10:30am 27.1 30.5 24.1 84 2.1 SSE 13 20 7 11 1010.0 1009.7 0.0
26/10:00am 27.0 30.4 24.1 84 2.0 SSE 13 19 7 10 1010.1 1009.8 0.0
26/09:30am 25.7 29.1 24.0 90 1.2 SSE 13 19 7 10 1010.5 1010.2 0.0
26/09:00am 25.5 29.3 24.0 91 1.0 SE 11 13 6 7 1010.1 1009.8 20.4
26/08:30am 25.1 29.6 23.9 93 0.8 S 7 9 4 5 1009.9 1009.6 20.4
26/08:00am 24.3 29.2 23.6 96 0.5 W 4 7 2 4 1009.1 1008.8 20.4
26/07:30am 23.5 27.7 23.1 98 0.3 W 6 9 3 5 1009.4 1009.1 20.4
26/07:00am 23.0 28.1 22.7 98 0.2 CALM 0 0 0 0 1009.2 1008.9 20.4
26/06:30am 22.9 27.6 22.6 98 0.2 ENE 2 6 1 3 1008.9 1008.6 20.4
26/06:00am 22.8 27.8 22.5 98 0.2 CALM 0 0 0 0 1008.4 1008.1 20.4
26/05:30am 22.9 28.0 22.6 98 0.2 CALM 0 0 0 0 1007.8 1007.5 20.4
26/05:00am 22.9 28.0 22.6 98 0.2 CALM 0 0 0 0 1007.7 1007.4 20.4
26/04:30am 23.0 28.1 22.6 98 0.3 CALM 0 0 0 0 1007.3 1007.0 20.4
26/04:00am 23.0 28.1 22.7 98 0.2 CALM 0 0 0 0 1007.1 1006.8 20.4
26/03:30am 23.1 28.3 22.8 98 0.2 CALM 0 0 0 0 1006.9 1006.6 20.4
26/03:00am 23.2 28.4 22.8 98 0.3 CALM 0 0 0 0 1007.3 1007.0 20.4
26/02:30am 23.2 28.4 22.8 98 0.3 CALM 0 0 0 0 1007.8 1007.5 20.4
26/02:00am 23.2 28.4 22.9 98 0.2 CALM 0 0 0 0 1008.0 1007.7 20.4
26/01:30am 23.3 28.6 23.0 98 0.2 CALM 0 0 0 0 1008.6 1008.3 20.4
26/01:00am 23.4 28.7 23.0 98 0.3 CALM 0 0 0 0 1009.0 1008.7 20.4
26/12:30am 23.3 28.6 23.0 98 0.2 CALM 0 0 0 0 1009.6 1009.3 20.2
26/12:00am 23.5 27.6 22.9 96 0.4 E 6 9 3 5 1009.7 1009.4 20.2
 
Date/Time
CST
Temp
°C
App
Temp
°C
Dew
Point
Rel
Hum
%
Delta-T
°C
Wind Press
QNH
hPa
Press
MSL
hPa
Rain
since 9 am
mm
Dir
 
Spd
km/h
Gust
km/h
Spd
kts
Gust
kts
25/11:30pm 23.6 26.8 23.0 96 0.4 ESE 11 15 6 8 1010.1 1009.8 20.2
25/11:00pm 24.0 27.6 23.1 95 0.6 E 9 15 5 8 1010.4 1010.1 20.2
25/10:30pm 23.8 28.4 23.2 96 0.4 NW 4 7 2 4 1009.8 1009.5 20.2
25/10:00pm 24.0 27.6 23.1 95 0.6 W 9 15 5 8 1009.2 1008.9 20.2
25/09:30pm 23.9 26.3 22.9 94 0.7 W 15 22 8 12 1009.4 1009.1 20.2
25/09:00pm 23.4 26.0 22.7 96 0.5 WSW 13 17 7 9 1009.8 1009.5 20.2
25/08:30pm 23.3 26.3 22.6 96 0.5 SW 11 15 6 8 1009.6 1009.3 19.8
25/08:25pm 23.3 26.3 22.6 96 0.5 SW 11 17 6 9 1009.3 - 19.8
25/08:00pm 23.4 26.5 22.8 96 0.4 WSW 11 13 6 7 1008.3 1008.0 19.6
25/07:30pm 23.2 27.2 22.8 98 0.3 SSW 6 11 3 6 1007.4 1007.1 18.8
25/07:00pm 23.2 26.2 22.6 96 0.4 WSW 11 15 6 8 1007.3 1007.0 17.6
25/06:30pm 23.4 26.1 22.8 96 0.4 WSW 13 19 7 10 1007.8 1007.5 15.4
25/06:00pm 23.2 26.0 22.3 95 0.6 NW 11 19 6 10 1006.9 1006.6 14.2
25/05:30pm 23.5 26.7 22.3 93 0.8 WNW 9 17 5 9 1008.2 1007.9 13.4
25/05:13pm 23.8 26.9 22.2 91 1.1 SW 9 17 5 9 1007.8 - 13.4
25/05:00pm 23.5 26.1 22.6 95 0.6 SW 13 19 7 10 1007.3 1007.0 13.4
25/04:30pm 22.7 25.1 21.5 93 0.8 N 11 20 6 11 1005.9 1005.6 13.2
25/04:00pm 25.2 27.9 22.1 83 2.1 NNW 11 20 6 11 1005.7 1005.4 0.6
25/03:52pm 26.2 29.2 22.7 81 2.4 NNE 11 24 6 13 1005.5 1005.2 0.0

Other Formats:

Comma delimited format used in spreadsheet applications
http://www.bom.gov.au/fwo/IDD60801/IDD60801.94128.axf

JavaScript Object Notation format (JSON) in row-major order
http://www.bom.gov.au/fwo/IDD60801/IDD60801.94128.json